sensor_id;sensor_type;location;lat;lon;timestamp;P1;durP1;ratioP1;P2;durP2;ratioP2
77111;SDS011;66064;50.226;14.344;2023-08-24T00:00:23;11.02;;;8.88;;
77111;SDS011;66064;50.226;14.344;2023-08-24T00:03:09;11.85;;;9.00;;
77111;SDS011;66064;50.226;14.344;2023-08-24T00:05:35;11.32;;;9.18;;
77111;SDS011;66064;50.226;14.344;2023-08-24T00:08:11;9.90;;;8.90;;
77111;SDS011;66064;50.226;14.344;2023-08-24T00:10:37;11.68;;;10.45;;
77111;SDS011;66064;50.226;14.344;2023-08-24T00:13:03;10.77;;;9.77;;
77111;SDS011;66064;50.226;14.344;2023-08-24T00:15:30;10.52;;;9.43;;
77111;SDS011;66064;50.226;14.344;2023-08-24T00:17:56;9.68;;;8.75;;
77111;SDS011;66064;50.226;14.344;2023-08-24T00:20:22;13.20;;;10.18;;
77111;SDS011;66064;50.226;14.344;2023-08-24T00:22:48;12.25;;;10.23;;
77111;SDS011;66064;50.226;14.344;2023-08-24T00:25:14;12.88;;;11.30;;
77111;SDS011;66064;50.226;14.344;2023-08-24T00:27:40;11.57;;;8.95;;
77111;SDS011;66064;50.226;14.344;2023-08-24T00:30:07;11.27;;;9.43;;
77111;SDS011;66064;50.226;14.344;2023-08-24T00:32:33;12.30;;;8.77;;
77111;SDS011;66064;50.226;14.344;2023-08-24T00:35:04;15.63;;;10.07;;
77111;SDS011;66064;50.226;14.344;2023-08-24T00:37:32;10.80;;;8.98;;
77111;SDS011;66064;50.226;14.344;2023-08-24T00:40:03;11.35;;;10.00;;
77111;SDS011;66064;50.226;14.344;2023-08-24T00:42:33;13.73;;;10.35;;
77111;SDS011;66064;50.226;14.344;2023-08-24T00:44:59;13.27;;;12.00;;
77111;SDS011;66064;50.226;14.344;2023-08-24T00:47:25;14.88;;;9.75;;
77111;SDS011;66064;50.226;14.344;2023-08-24T00:49:51;11.77;;;9.73;;
77111;SDS011;66064;50.226;14.344;2023-08-24T00:52:17;12.30;;;11.02;;
77111;SDS011;66064;50.226;14.344;2023-08-24T00:54:44;11.82;;;10.05;;
77111;SDS011;66064;50.226;14.344;2023-08-24T00:57:10;11.90;;;10.13;;
77111;SDS011;66064;50.226;14.344;2023-08-24T00:59:37;12.45;;;10.85;;
77111;SDS011;66064;50.226;14.344;2023-08-24T01:02:03;11.18;;;9.48;;
77111;SDS011;66064;50.226;14.344;2023-08-24T01:04:29;11.63;;;10.48;;
77111;SDS011;66064;50.226;14.344;2023-08-24T01:06:54;12.00;;;10.20;;
77111;SDS011;66064;50.226;14.344;2023-08-24T01:09:21;14.93;;;10.95;;
77111;SDS011;66064;50.226;14.344;2023-08-24T01:12:02;11.75;;;9.90;;
77111;SDS011;66064;50.226;14.344;2023-08-24T01:17:35;12.02;;;9.82;;
77111;SDS011;66064;50.226;14.344;2023-08-24T01:28:29;12.23;;;10.23;;
77111;SDS011;66064;50.226;14.344;2023-08-24T01:30:56;15.35;;;9.82;;
77111;SDS011;66064;50.226;14.344;2023-08-24T01:33:22;13.70;;;11.02;;
77111;SDS011;66064;50.226;14.344;2023-08-24T01:35:48;13.02;;;11.63;;
77111;SDS011;66064;50.226;14.344;2023-08-24T01:38:14;11.85;;;10.13;;
77111;SDS011;66064;50.226;14.344;2023-08-24T01:40:56;12.13;;;10.93;;
77111;SDS011;66064;50.226;14.344;2023-08-24T01:43:34;11.77;;;10.55;;
77111;SDS011;66064;50.226;14.344;2023-08-24T01:46:05;12.32;;;10.27;;
77111;SDS011;66064;50.226;14.344;2023-08-24T01:48:33;13.85;;;11.00;;
77111;SDS011;66064;50.226;14.344;2023-08-24T01:51:01;11.98;;;10.18;;
77111;SDS011;66064;50.226;14.344;2023-08-24T01:53:32;11.90;;;10.70;;
77111;SDS011;66064;50.226;14.344;2023-08-24T01:55:59;11.65;;;10.02;;
77111;SDS011;66064;50.226;14.344;2023-08-24T01:58:25;13.00;;;11.38;;
77111;SDS011;66064;50.226;14.344;2023-08-24T02:00:51;12.13;;;10.63;;
77111;SDS011;66064;50.226;14.344;2023-08-24T02:03:17;13.02;;;11.00;;
77111;SDS011;66064;50.226;14.344;2023-08-24T02:05:43;12.10;;;10.32;;
77111;SDS011;66064;50.226;14.344;2023-08-24T02:08:09;13.07;;;11.00;;
77111;SDS011;66064;50.226;14.344;2023-08-24T02:10:35;11.90;;;10.70;;
77111;SDS011;66064;50.226;14.344;2023-08-24T02:13:01;13.75;;;12.38;;
77111;SDS011;66064;50.226;14.344;2023-08-24T02:15:27;13.85;;;11.30;;
77111;SDS011;66064;50.226;14.344;2023-08-24T02:17:53;14.77;;;13.00;;
77111;SDS011;66064;50.226;14.344;2023-08-24T02:20:19;14.30;;;11.75;;
77111;SDS011;66064;50.226;14.344;2023-08-24T02:22:45;12.30;;;11.00;;
77111;SDS011;66064;50.226;14.344;2023-08-24T02:25:11;14.40;;;12.88;;
77111;SDS011;66064;50.226;14.344;2023-08-24T02:27:37;12.02;;;10.82;;
77111;SDS011;66064;50.226;14.344;2023-08-24T02:30:03;13.15;;;10.40;;
77111;SDS011;66064;50.226;14.344;2023-08-24T02:32:29;16.00;;;11.80;;
77111;SDS011;66064;50.226;14.344;2023-08-24T02:34:55;13.75;;;12.32;;
77111;SDS011;66064;50.226;14.344;2023-08-24T02:37:21;12.38;;;10.90;;
77111;SDS011;66064;50.226;14.344;2023-08-24T02:39:47;13.13;;;11.45;;
77111;SDS011;66064;50.226;14.344;2023-08-24T02:42:13;13.70;;;11.20;;
77111;SDS011;66064;50.226;14.344;2023-08-24T02:44:39;14.95;;;11.88;;
77111;SDS011;66064;50.226;14.344;2023-08-24T02:47:06;13.63;;;12.23;;
77111;SDS011;66064;50.226;14.344;2023-08-24T02:49:32;12.77;;;11.00;;
77111;SDS011;66064;50.226;14.344;2023-08-24T02:51:57;12.70;;;11.30;;
77111;SDS011;66064;50.226;14.344;2023-08-24T02:54:24;11.77;;;10.57;;
77111;SDS011;66064;50.226;14.344;2023-08-24T02:56:49;13.18;;;11.80;;
77111;SDS011;66064;50.226;14.344;2023-08-24T02:59:16;13.98;;;12.57;;
77111;SDS011;66064;50.226;14.344;2023-08-24T03:01:41;12.95;;;10.75;;
77111;SDS011;66064;50.226;14.344;2023-08-24T03:04:07;14.10;;;12.73;;
77111;SDS011;66064;50.226;14.344;2023-08-24T03:06:33;13.57;;;12.15;;
77111;SDS011;66064;50.226;14.344;2023-08-24T03:09:00;15.05;;;12.60;;
77111;SDS011;66064;50.226;14.344;2023-08-24T03:11:29;12.52;;;10.18;;
77111;SDS011;66064;50.226;14.344;2023-08-24T03:13:55;12.95;;;11.55;;
77111;SDS011;66064;50.226;14.344;2023-08-24T03:16:21;13.48;;;11.30;;
77111;SDS011;66064;50.226;14.344;2023-08-24T03:18:47;13.63;;;11.85;;
77111;SDS011;66064;50.226;14.344;2023-08-24T03:21:13;16.80;;;12.63;;
77111;SDS011;66064;50.226;14.344;2023-08-24T03:23:39;12.85;;;11.52;;
77111;SDS011;66064;50.226;14.344;2023-08-24T03:26:05;13.90;;;12.48;;
77111;SDS011;66064;50.226;14.344;2023-08-24T03:28:31;14.65;;;12.95;;
77111;SDS011;66064;50.226;14.344;2023-08-24T03:30:57;17.38;;;15.63;;
77111;SDS011;66064;50.226;14.344;2023-08-24T03:33:24;12.38;;;11.18;;
77111;SDS011;66064;50.226;14.344;2023-08-24T03:35:49;14.30;;;11.05;;
77111;SDS011;66064;50.226;14.344;2023-08-24T03:38:16;16.02;;;11.93;;
77111;SDS011;66064;50.226;14.344;2023-08-24T03:40:42;15.15;;;12.52;;
77111;SDS011;66064;50.226;14.344;2023-08-24T03:43:08;13.82;;;12.43;;
77111;SDS011;66064;50.226;14.344;2023-08-24T03:45:34;13.65;;;12.27;;
77111;SDS011;66064;50.226;14.344;2023-08-24T03:48:00;13.82;;;12.35;;
77111;SDS011;66064;50.226;14.344;2023-08-24T03:50:26;12.32;;;11.13;;
77111;SDS011;66064;50.226;14.344;2023-08-24T03:52:53;15.35;;;12.45;;
77111;SDS011;66064;50.226;14.344;2023-08-24T03:55:20;15.07;;;12.60;;
77111;SDS011;66064;50.226;14.344;2023-08-24T03:57:54;13.88;;;12.50;;
77111;SDS011;66064;50.226;14.344;2023-08-24T04:00:20;13.88;;;12.18;;
77111;SDS011;66064;50.226;14.344;2023-08-24T04:02:47;13.73;;;12.32;;
77111;SDS011;66064;50.226;14.344;2023-08-24T04:05:12;14.40;;;12.90;;
77111;SDS011;66064;50.226;14.344;2023-08-24T04:07:39;14.73;;;12.73;;
77111;SDS011;66064;50.226;14.344;2023-08-24T04:10:08;13.13;;;11.82;;
77111;SDS011;66064;50.226;14.344;2023-08-24T04:12:35;14.10;;;12.63;;
77111;SDS011;66064;50.226;14.344;2023-08-24T04:15:01;16.48;;;12.02;;
77111;SDS011;66064;50.226;14.344;2023-08-24T04:17:28;17.60;;;13.00;;
77111;SDS011;66064;50.226;14.344;2023-08-24T04:19:54;16.35;;;13.13;;
77111;SDS011;66064;50.226;14.344;2023-08-24T04:22:21;13.93;;;12.50;;
77111;SDS011;66064;50.226;14.344;2023-08-24T04:24:46;15.30;;;13.00;;
77111;SDS011;66064;50.226;14.344;2023-08-24T04:27:12;13.98;;;11.77;;
77111;SDS011;66064;50.226;14.344;2023-08-24T04:29:38;14.20;;;12.43;;
77111;SDS011;66064;50.226;14.344;2023-08-24T04:32:05;12.45;;;11.13;;
77111;SDS011;66064;50.226;14.344;2023-08-24T04:34:31;15.63;;;13.98;;
77111;SDS011;66064;50.226;14.344;2023-08-24T04:36:58;14.18;;;11.82;;
77111;SDS011;66064;50.226;14.344;2023-08-24T04:39:24;14.35;;;12.85;;
77111;SDS011;66064;50.226;14.344;2023-08-24T04:41:50;15.15;;;13.55;;
77111;SDS011;66064;50.226;14.344;2023-08-24T04:44:16;16.05;;;13.38;;
77111;SDS011;66064;50.226;14.344;2023-08-24T04:46:42;14.88;;;13.38;;
77111;SDS011;66064;50.226;14.344;2023-08-24T04:49:08;15.10;;;12.45;;
77111;SDS011;66064;50.226;14.344;2023-08-24T04:51:35;24.55;;;12.45;;
77111;SDS011;66064;50.226;14.344;2023-08-24T04:54:01;13.60;;;12.23;;
77111;SDS011;66064;50.226;14.344;2023-08-24T04:56:27;13.65;;;12.25;;
77111;SDS011;66064;50.226;14.344;2023-08-24T04:58:56;15.73;;;14.07;;
77111;SDS011;66064;50.226;14.344;2023-08-24T05:01:24;13.93;;;12.27;;
77111;SDS011;66064;50.226;14.344;2023-08-24T05:03:52;15.50;;;12.55;;
77111;SDS011;66064;50.226;14.344;2023-08-24T05:06:20;17.40;;;12.30;;
77111;SDS011;66064;50.226;14.344;2023-08-24T05:08:46;13.82;;;11.80;;
77111;SDS011;66064;50.226;14.344;2023-08-24T05:11:13;13.13;;;11.82;;
77111;SDS011;66064;50.226;14.344;2023-08-24T05:13:43;14.32;;;11.60;;
77111;SDS011;66064;50.226;14.344;2023-08-24T05:16:09;15.13;;;13.63;;
77111;SDS011;66064;50.226;14.344;2023-08-24T05:18:36;11.15;;;10.05;;
77111;SDS011;66064;50.226;14.344;2023-08-24T05:21:02;12.70;;;10.43;;
77111;SDS011;66064;50.226;14.344;2023-08-24T05:23:29;11.35;;;10.32;;
77111;SDS011;66064;50.226;14.344;2023-08-24T05:25:57;14.38;;;10.35;;
77111;SDS011;66064;50.226;14.344;2023-08-24T05:28:27;12.88;;;8.95;;
77111;SDS011;66064;50.226;14.344;2023-08-24T05:30:54;11.15;;;8.02;;
77111;SDS011;66064;50.226;14.344;2023-08-24T05:33:20;11.88;;;8.38;;
77111;SDS011;66064;50.226;14.344;2023-08-24T05:35:48;9.27;;;7.88;;
77111;SDS011;66064;50.226;14.344;2023-08-24T05:38:15;8.93;;;7.75;;
77111;SDS011;66064;50.226;14.344;2023-08-24T05:40:42;8.32;;;7.47;;
77111;SDS011;66064;50.226;14.344;2023-08-24T05:43:09;9.32;;;8.43;;
77111;SDS011;66064;50.226;14.344;2023-08-24T05:45:36;8.10;;;7.25;;
77111;SDS011;66064;50.226;14.344;2023-08-24T05:50:31;8.32;;;6.82;;
77111;SDS011;66064;50.226;14.344;2023-08-24T05:52:57;8.30;;;6.43;;
77111;SDS011;66064;50.226;14.344;2023-08-24T05:55:23;8.68;;;7.65;;
77111;SDS011;66064;50.226;14.344;2023-08-24T05:57:50;8.18;;;6.63;;
77111;SDS011;66064;50.226;14.344;2023-08-24T06:00:17;10.68;;;6.32;;
77111;SDS011;66064;50.226;14.344;2023-08-24T06:02:43;9.30;;;6.07;;
77111;SDS011;66064;50.226;14.344;2023-08-24T06:05:09;8.02;;;5.95;;
77111;SDS011;66064;50.226;14.344;2023-08-24T06:07:36;9.25;;;7.00;;
77111;SDS011;66064;50.226;14.344;2023-08-24T06:10:02;8.07;;;5.90;;
77111;SDS011;66064;50.226;14.344;2023-08-24T06:12:28;9.82;;;6.05;;
77111;SDS011;66064;50.226;14.344;2023-08-24T06:14:54;11.82;;;6.00;;
77111;SDS011;66064;50.226;14.344;2023-08-24T06:17:20;9.00;;;5.90;;
77111;SDS011;66064;50.226;14.344;2023-08-24T06:19:46;6.60;;;5.50;;
77111;SDS011;66064;50.226;14.344;2023-08-24T06:22:12;7.35;;;5.70;;
77111;SDS011;66064;50.226;14.344;2023-08-24T06:24:38;8.13;;;5.78;;
77111;SDS011;66064;50.226;14.344;2023-08-24T06:27:04;8.25;;;5.43;;
77111;SDS011;66064;50.226;14.344;2023-08-24T06:29:30;8.60;;;5.05;;
77111;SDS011;66064;50.226;14.344;2023-08-24T06:31:56;7.50;;;5.30;;
77111;SDS011;66064;50.226;14.344;2023-08-24T06:34:22;7.50;;;4.80;;
77111;SDS011;66064;50.226;14.344;2023-08-24T06:36:49;5.78;;;5.18;;
77111;SDS011;66064;50.226;14.344;2023-08-24T06:39:16;6.47;;;5.65;;
77111;SDS011;66064;50.226;14.344;2023-08-24T06:41:42;8.30;;;5.22;;
77111;SDS011;66064;50.226;14.344;2023-08-24T06:44:08;8.70;;;5.88;;
77111;SDS011;66064;50.226;14.344;2023-08-24T06:46:34;7.18;;;4.97;;
77111;SDS011;66064;50.226;14.344;2023-08-24T06:49:00;7.68;;;4.95;;
77111;SDS011;66064;50.226;14.344;2023-08-24T06:51:26;7.07;;;4.63;;
77111;SDS011;66064;50.226;14.344;2023-08-24T06:56:19;8.93;;;4.90;;
77111;SDS011;66064;50.226;14.344;2023-08-24T06:58:47;6.85;;;5.55;;
77111;SDS011;66064;50.226;14.344;2023-08-24T07:01:13;5.78;;;4.97;;
77111;SDS011;66064;50.226;14.344;2023-08-24T07:03:39;8.18;;;5.07;;
77111;SDS011;66064;50.226;14.344;2023-08-24T07:06:08;6.63;;;4.72;;
77111;SDS011;66064;50.226;14.344;2023-08-24T07:08:37;8.60;;;4.45;;
77111;SDS011;66064;50.226;14.344;2023-08-24T07:11:03;7.15;;;4.35;;
77111;SDS011;66064;50.226;14.344;2023-08-24T07:13:30;6.40;;;4.20;;
77111;SDS011;66064;50.226;14.344;2023-08-24T07:15:56;6.38;;;4.30;;
77111;SDS011;66064;50.226;14.344;2023-08-24T07:18:22;5.47;;;3.60;;
77111;SDS011;66064;50.226;14.344;2023-08-24T07:20:48;5.35;;;4.00;;
77111;SDS011;66064;50.226;14.344;2023-08-24T07:23:14;6.10;;;3.72;;
77111;SDS011;66064;50.226;14.344;2023-08-24T07:25:40;7.25;;;3.80;;
77111;SDS011;66064;50.226;14.344;2023-08-24T07:28:06;9.70;;;3.65;;
77111;SDS011;66064;50.226;14.344;2023-08-24T07:30:33;9.85;;;3.67;;
77111;SDS011;66064;50.226;14.344;2023-08-24T07:33:01;6.03;;;3.10;;
77111;SDS011;66064;50.226;14.344;2023-08-24T07:35:30;5.07;;;3.20;;
77111;SDS011;66064;50.226;14.344;2023-08-24T07:37:57;6.75;;;3.60;;
77111;SDS011;66064;50.226;14.344;2023-08-24T07:40:23;11.70;;;3.95;;
77111;SDS011;66064;50.226;14.344;2023-08-24T07:42:50;6.32;;;3.40;;
77111;SDS011;66064;50.226;14.344;2023-08-24T07:45:21;5.70;;;3.70;;
77111;SDS011;66064;50.226;14.344;2023-08-24T07:47:51;5.72;;;3.03;;
77111;SDS011;66064;50.226;14.344;2023-08-24T07:50:17;5.97;;;3.10;;
77111;SDS011;66064;50.226;14.344;2023-08-24T07:52:43;4.45;;;3.33;;
77111;SDS011;66064;50.226;14.344;2023-08-24T07:55:10;5.88;;;3.20;;
77111;SDS011;66064;50.226;14.344;2023-08-24T07:57:36;8.88;;;3.50;;
77111;SDS011;66064;50.226;14.344;2023-08-24T08:00:03;5.22;;;3.50;;
77111;SDS011;66064;50.226;14.344;2023-08-24T08:02:30;10.52;;;3.92;;
77111;SDS011;66064;50.226;14.344;2023-08-24T08:04:59;7.88;;;3.30;;
77111;SDS011;66064;50.226;14.344;2023-08-24T08:07:28;5.70;;;3.22;;
77111;SDS011;66064;50.226;14.344;2023-08-24T08:09:54;5.57;;;3.00;;
77111;SDS011;66064;50.226;14.344;2023-08-24T08:12:20;6.85;;;3.50;;
77111;SDS011;66064;50.226;14.344;2023-08-24T08:14:45;6.30;;;3.13;;
77111;SDS011;66064;50.226;14.344;2023-08-24T08:17:12;6.20;;;2.95;;
77111;SDS011;66064;50.226;14.344;2023-08-24T08:19:37;5.50;;;3.30;;
77111;SDS011;66064;50.226;14.344;2023-08-24T08:22:04;9.20;;;3.75;;
77111;SDS011;66064;50.226;14.344;2023-08-24T08:24:30;5.30;;;3.10;;
77111;SDS011;66064;50.226;14.344;2023-08-24T08:26:56;6.50;;;3.17;;
77111;SDS011;66064;50.226;14.344;2023-08-24T08:29:22;7.03;;;2.80;;
77111;SDS011;66064;50.226;14.344;2023-08-24T08:31:48;8.18;;;3.42;;
77111;SDS011;66064;50.226;14.344;2023-08-24T08:34:14;3.25;;;2.63;;
77111;SDS011;66064;50.226;14.344;2023-08-24T08:36:40;6.88;;;2.75;;
77111;SDS011;66064;50.226;14.344;2023-08-24T08:39:06;5.43;;;3.05;;
77111;SDS011;66064;50.226;14.344;2023-08-24T08:41:36;4.40;;;2.97;;
77111;SDS011;66064;50.226;14.344;2023-08-24T08:44:06;10.63;;;3.00;;
77111;SDS011;66064;50.226;14.344;2023-08-24T08:46:34;6.15;;;2.72;;
77111;SDS011;66064;50.226;14.344;2023-08-24T08:49:00;6.10;;;2.90;;
77111;SDS011;66064;50.226;14.344;2023-08-24T08:51:27;5.55;;;2.50;;
77111;SDS011;66064;50.226;14.344;2023-08-24T08:53:53;6.40;;;2.50;;
77111;SDS011;66064;50.226;14.344;2023-08-24T08:56:21;7.60;;;3.15;;
77111;SDS011;66064;50.226;14.344;2023-08-24T08:58:48;6.95;;;2.80;;
77111;SDS011;66064;50.226;14.344;2023-08-24T09:01:15;8.23;;;3.00;;
77111;SDS011;66064;50.226;14.344;2023-08-24T09:03:42;6.38;;;2.83;;
77111;SDS011;66064;50.226;14.344;2023-08-24T09:06:10;3.85;;;2.65;;
77111;SDS011;66064;50.226;14.344;2023-08-24T09:08:36;4.68;;;2.25;;
77111;SDS011;66064;50.226;14.344;2023-08-24T09:11:03;5.13;;;2.78;;
77111;SDS011;66064;50.226;14.344;2023-08-24T09:13:29;7.15;;;2.70;;
77111;SDS011;66064;50.226;14.344;2023-08-24T09:16:16;7.53;;;2.58;;
77111;SDS011;66064;50.226;14.344;2023-08-24T09:18:45;5.85;;;2.28;;
77111;SDS011;66064;50.226;14.344;2023-08-24T09:21:14;4.20;;;2.35;;
77111;SDS011;66064;50.226;14.344;2023-08-24T09:23:44;6.47;;;2.50;;
77111;SDS011;66064;50.226;14.344;2023-08-24T09:26:26;3.88;;;2.45;;
77111;SDS011;66064;50.226;14.344;2023-08-24T09:29:00;4.22;;;2.10;;
77111;SDS011;66064;50.226;14.344;2023-08-24T09:31:37;7.43;;;2.60;;
77111;SDS011;66064;50.226;14.344;2023-08-24T09:34:04;6.65;;;2.85;;
77111;SDS011;66064;50.226;14.344;2023-08-24T09:38:58;4.05;;;2.50;;
77111;SDS011;66064;50.226;14.344;2023-08-24T09:41:39;4.97;;;2.05;;
77111;SDS011;66064;50.226;14.344;2023-08-24T09:44:06;5.38;;;2.33;;
77111;SDS011;66064;50.226;14.344;2023-08-24T09:46:37;4.75;;;2.25;;
77111;SDS011;66064;50.226;14.344;2023-08-24T09:49:07;4.25;;;2.25;;
77111;SDS011;66064;50.226;14.344;2023-08-24T09:51:35;3.97;;;2.00;;
77111;SDS011;66064;50.226;14.344;2023-08-24T09:54:04;5.28;;;2.17;;
77111;SDS011;66064;50.226;14.344;2023-08-24T09:56:37;4.40;;;2.10;;
77111;SDS011;66064;50.226;14.344;2023-08-24T09:59:08;3.38;;;1.80;;
77111;SDS011;66064;50.226;14.344;2023-08-24T10:01:43;3.75;;;2.10;;
77111;SDS011;66064;50.226;14.344;2023-08-24T10:04:12;5.82;;;2.40;;
77111;SDS011;66064;50.226;14.344;2023-08-24T10:06:39;4.82;;;2.08;;
77111;SDS011;66064;50.226;14.344;2023-08-24T10:09:11;6.47;;;2.30;;
77111;SDS011;66064;50.226;14.344;2023-08-24T10:11:46;4.80;;;2.13;;
77111;SDS011;66064;50.226;14.344;2023-08-24T10:16:52;3.88;;;2.00;;
77111;SDS011;66064;50.226;14.344;2023-08-24T10:19:18;3.60;;;2.38;;
77111;SDS011;66064;50.226;14.344;2023-08-24T10:21:48;3.60;;;2.15;;
77111;SDS011;66064;50.226;14.344;2023-08-24T10:24:16;4.25;;;2.60;;
77111;SDS011;66064;50.226;14.344;2023-08-24T10:26:42;4.68;;;2.42;;
77111;SDS011;66064;50.226;14.344;2023-08-24T10:29:09;4.45;;;2.30;;
77111;SDS011;66064;50.226;14.344;2023-08-24T10:31:35;3.38;;;2.20;;
77111;SDS011;66064;50.226;14.344;2023-08-24T10:34:04;6.25;;;2.42;;
77111;SDS011;66064;50.226;14.344;2023-08-24T10:36:32;5.00;;;2.35;;
77111;SDS011;66064;50.226;14.344;2023-08-24T10:41:47;6.47;;;2.40;;
77111;SDS011;66064;50.226;14.344;2023-08-24T10:44:24;5.15;;;2.72;;
77111;SDS011;66064;50.226;14.344;2023-08-24T10:47:11;8.63;;;2.53;;
77111;SDS011;66064;50.226;14.344;2023-08-24T10:49:40;4.72;;;2.53;;
77111;SDS011;66064;50.226;14.344;2023-08-24T10:54:49;5.50;;;2.80;;
77111;SDS011;66064;50.226;14.344;2023-08-24T10:57:21;4.53;;;2.67;;
77111;SDS011;66064;50.226;14.344;2023-08-24T11:00:04;4.55;;;2.83;;
77111;SDS011;66064;50.226;14.344;2023-08-24T11:02:45;5.70;;;2.90;;
77111;SDS011;66064;50.226;14.344;2023-08-24T11:07:58;5.22;;;3.00;;
77111;SDS011;66064;50.226;14.344;2023-08-24T11:10:32;5.55;;;2.90;;
77111;SDS011;66064;50.226;14.344;2023-08-24T11:13:18;5.60;;;3.10;;
77111;SDS011;66064;50.226;14.344;2023-08-24T11:15:50;4.55;;;2.95;;
77111;SDS011;66064;50.226;14.344;2023-08-24T11:18:21;6.78;;;3.10;;
77111;SDS011;66064;50.226;14.344;2023-08-24T11:20:48;5.13;;;3.10;;
77111;SDS011;66064;50.226;14.344;2023-08-24T11:23:17;5.45;;;3.13;;
77111;SDS011;66064;50.226;14.344;2023-08-24T11:25:44;7.50;;;3.30;;
77111;SDS011;66064;50.226;14.344;2023-08-24T11:28:15;5.32;;;2.83;;
77111;SDS011;66064;50.226;14.344;2023-08-24T11:30:42;5.72;;;3.10;;
77111;SDS011;66064;50.226;14.344;2023-08-24T11:33:10;5.68;;;2.80;;
77111;SDS011;66064;50.226;14.344;2023-08-24T11:35:38;6.75;;;3.25;;
77111;SDS011;66064;50.226;14.344;2023-08-24T11:38:07;5.38;;;2.90;;
77111;SDS011;66064;50.226;14.344;2023-08-24T11:40:33;6.80;;;3.10;;
77111;SDS011;66064;50.226;14.344;2023-08-24T11:42:59;6.38;;;3.20;;
77111;SDS011;66064;50.226;14.344;2023-08-24T11:45:35;5.25;;;3.50;;
77111;SDS011;66064;50.226;14.344;2023-08-24T11:48:03;6.40;;;3.15;;
77111;SDS011;66064;50.226;14.344;2023-08-24T11:50:32;6.70;;;3.33;;
77111;SDS011;66064;50.226;14.344;2023-08-24T11:53:01;6.53;;;3.40;;
77111;SDS011;66064;50.226;14.344;2023-08-24T11:55:28;5.53;;;3.20;;
77111;SDS011;66064;50.226;14.344;2023-08-24T11:57:54;4.78;;;3.15;;
77111;SDS011;66064;50.226;14.344;2023-08-24T12:00:21;6.57;;;3.40;;
77111;SDS011;66064;50.226;14.344;2023-08-24T12:02:48;5.65;;;3.53;;
77111;SDS011;66064;50.226;14.344;2023-08-24T12:05:21;4.88;;;3.58;;
77111;SDS011;66064;50.226;14.344;2023-08-24T12:07:52;5.97;;;3.67;;
77111;SDS011;66064;50.226;14.344;2023-08-24T12:10:18;6.50;;;3.60;;
77111;SDS011;66064;50.226;14.344;2023-08-24T12:12:45;5.25;;;3.38;;
77111;SDS011;66064;50.226;14.344;2023-08-24T12:15:15;6.47;;;3.70;;
77111;SDS011;66064;50.226;14.344;2023-08-24T12:17:48;5.60;;;3.95;;
77111;SDS011;66064;50.226;14.344;2023-08-24T12:20:18;6.10;;;3.90;;
77111;SDS011;66064;50.226;14.344;2023-08-24T12:22:54;8.13;;;4.00;;
77111;SDS011;66064;50.226;14.344;2023-08-24T12:25:24;6.75;;;4.10;;
77111;SDS011;66064;50.226;14.344;2023-08-24T12:27:51;5.38;;;4.38;;
77111;SDS011;66064;50.226;14.344;2023-08-24T12:30:18;5.53;;;3.72;;
77111;SDS011;66064;50.226;14.344;2023-08-24T12:32:48;8.30;;;3.97;;
77111;SDS011;66064;50.226;14.344;2023-08-24T12:35:16;10.30;;;3.72;;
77111;SDS011;66064;50.226;14.344;2023-08-24T12:37:42;9.82;;;3.78;;
77111;SDS011;66064;50.226;14.344;2023-08-24T12:40:08;5.03;;;3.83;;
77111;SDS011;66064;50.226;14.344;2023-08-24T12:42:35;6.45;;;3.80;;
77111;SDS011;66064;50.226;14.344;2023-08-24T12:45:01;8.25;;;4.03;;
77111;SDS011;66064;50.226;14.344;2023-08-24T12:47:27;7.93;;;4.20;;
77111;SDS011;66064;50.226;14.344;2023-08-24T12:49:54;7.78;;;4.10;;
77111;SDS011;66064;50.226;14.344;2023-08-24T12:52:22;5.95;;;4.13;;
77111;SDS011;66064;50.226;14.344;2023-08-24T12:54:50;10.20;;;5.03;;
77111;SDS011;66064;50.226;14.344;2023-08-24T12:57:16;7.75;;;4.45;;
77111;SDS011;66064;50.226;14.344;2023-08-24T12:59:42;7.75;;;4.00;;
77111;SDS011;66064;50.226;14.344;2023-08-24T13:02:09;6.88;;;4.28;;
77111;SDS011;66064;50.226;14.344;2023-08-24T13:04:35;7.82;;;5.47;;
77111;SDS011;66064;50.226;14.344;2023-08-24T13:07:01;5.78;;;3.97;;
77111;SDS011;66064;50.226;14.344;2023-08-24T13:09:28;6.97;;;4.30;;
77111;SDS011;66064;50.226;14.344;2023-08-24T13:11:55;6.28;;;4.07;;
77111;SDS011;66064;50.226;14.344;2023-08-24T13:14:22;8.43;;;4.00;;
77111;SDS011;66064;50.226;14.344;2023-08-24T13:16:49;5.35;;;3.90;;
77111;SDS011;66064;50.226;14.344;2023-08-24T13:19:15;7.80;;;3.78;;
77111;SDS011;66064;50.226;14.344;2023-08-24T13:21:43;12.02;;;6.32;;
77111;SDS011;66064;50.226;14.344;2023-08-24T13:24:09;6.72;;;3.75;;
77111;SDS011;66064;50.226;14.344;2023-08-24T13:26:35;6.68;;;4.50;;
77111;SDS011;66064;50.226;14.344;2023-08-24T13:29:02;6.22;;;4.22;;
77111;SDS011;66064;50.226;14.344;2023-08-24T13:31:30;7.40;;;3.88;;
77111;SDS011;66064;50.226;14.344;2023-08-24T13:33:56;6.93;;;3.97;;
77111;SDS011;66064;50.226;14.344;2023-08-24T13:36:24;9.50;;;4.50;;
77111;SDS011;66064;50.226;14.344;2023-08-24T13:38:51;5.13;;;4.15;;
77111;SDS011;66064;50.226;14.344;2023-08-24T13:41:18;7.45;;;4.65;;
77111;SDS011;66064;50.226;14.344;2023-08-24T13:43:44;5.10;;;4.40;;
77111;SDS011;66064;50.226;14.344;2023-08-24T13:46:10;6.38;;;4.50;;
77111;SDS011;66064;50.226;14.344;2023-08-24T13:48:36;7.35;;;4.38;;
77111;SDS011;66064;50.226;14.344;2023-08-24T13:51:04;5.88;;;4.15;;
77111;SDS011;66064;50.226;14.344;2023-08-24T13:53:30;8.10;;;4.07;;
77111;SDS011;66064;50.226;14.344;2023-08-24T13:55:59;7.30;;;4.78;;
77111;SDS011;66064;50.226;14.344;2023-08-24T13:58:25;8.40;;;4.70;;
77111;SDS011;66064;50.226;14.344;2023-08-24T14:00:57;5.32;;;4.60;;
77111;SDS011;66064;50.226;14.344;2023-08-24T14:03:23;5.90;;;3.70;;
77111;SDS011;66064;50.226;14.344;2023-08-24T14:05:54;5.85;;;4.10;;
77111;SDS011;66064;50.226;14.344;2023-08-24T14:08:22;6.45;;;4.50;;
77111;SDS011;66064;50.226;14.344;2023-08-24T14:13:17;7.00;;;3.90;;
77111;SDS011;66064;50.226;14.344;2023-08-24T14:15:43;6.13;;;4.63;;
77111;SDS011;66064;50.226;14.344;2023-08-24T14:18:11;8.50;;;4.25;;
77111;SDS011;66064;50.226;14.344;2023-08-24T14:20:45;6.60;;;4.70;;
77111;SDS011;66064;50.226;14.344;2023-08-24T14:23:11;8.57;;;4.85;;
77111;SDS011;66064;50.226;14.344;2023-08-24T14:25:37;5.65;;;4.20;;
77111;SDS011;66064;50.226;14.344;2023-08-24T14:28:03;6.35;;;4.30;;
77111;SDS011;66064;50.226;14.344;2023-08-24T14:30:31;6.22;;;4.05;;
77111;SDS011;66064;50.226;14.344;2023-08-24T14:32:58;5.75;;;4.22;;
77111;SDS011;66064;50.226;14.344;2023-08-24T14:35:24;7.78;;;4.47;;
77111;SDS011;66064;50.226;14.344;2023-08-24T14:37:57;6.95;;;4.68;;
77111;SDS011;66064;50.226;14.344;2023-08-24T14:40:23;6.90;;;4.40;;
77111;SDS011;66064;50.226;14.344;2023-08-24T14:42:49;7.55;;;4.20;;
77111;SDS011;66064;50.226;14.344;2023-08-24T14:45:16;5.60;;;4.25;;
77111;SDS011;66064;50.226;14.344;2023-08-24T14:47:45;9.93;;;4.10;;
77111;SDS011;66064;50.226;14.344;2023-08-24T14:50:13;7.82;;;3.95;;
77111;SDS011;66064;50.226;14.344;2023-08-24T14:52:40;6.95;;;4.65;;
77111;SDS011;66064;50.226;14.344;2023-08-24T14:55:06;6.10;;;4.40;;
77111;SDS011;66064;50.226;14.344;2023-08-24T14:57:36;7.03;;;4.47;;
77111;SDS011;66064;50.226;14.344;2023-08-24T15:00:03;5.10;;;4.60;;